Arthur Maersk — OXJH2 — position and weather

sailwx.info

Track history (hours):
 
Tides and Currents Weather Stations Pressure Air Temp Water Temp Dewpoint Dewpoint Depression Visibility Wind Speed Wind Dir Waves Ship Positions

Arthur Maersk

Last reported at 2015-Jan-30 05:32 UTC. Time now 2015-Jan-30 06:24 UTC.
Position N 49°01' W 123°09'.

Length 352 m; draft 13.1 m.

Type: Cargo ship. MMSI: 220221000.

Date/timePositionNaut miles runAvg speedWind from/ knotsBaromVisibWave heightAir tempDewpointWater temp
2015-Jan-30 05:32N 49°01' W 123°09'0 0.0
2015-Jan-30 04:32N 49°01' W 123°09'0 0.0
2015-Jan-30 03:32N 49°01' W 123°09'0 0.0
2015-Jan-30 02:32N 49°01' W 123°09'0 0.0
2015-Jan-30 01:32N 49°01' W 123°09'0 0.0
2015-Jan-30 00:29N 49°01' W 123°09'0 0.0
2015-Jan-29 23:29N 49°01' W 123°09'0 0.0
2015-Jan-29 22:32N 49°01' W 123°09'0 0.0
2015-Jan-29 21:32N 49°01' W 123°09'0 0.0
2015-Jan-29 20:32N 49°01' W 123°09'0 0.0
2015-Jan-29 19:32N 49°01' W 123°09'0 0.0
2015-Jan-29 18:32N 49°01' W 123°09'0 0.0
2015-Jan-29 17:32N 49°01' W 123°09'0 0.0
2015-Jan-29 16:32N 49°01' W 123°09'0 0.0
2015-Jan-29 15:32N 49°01' W 123°09'0 0.0
2015-Jan-29 14:32N 49°01' W 123°09'0 0.0
2015-Jan-29 13:32N 49°01' W 123°09'0 0.0
2015-Jan-29 12:32N 49°01' W 123°09'0 0.0
2015-Jan-29 11:33N 49°01' W 123°09'0 0.0
2015-Jan-29 10:32N 49°01' W 123°09'0 0.0
2015-Jan-29 09:32N 49°01' W 123°09'0 0.0
2015-Jan-29 08:32N 49°01' W 123°09'0 0.0
2015-Jan-29 07:29N 49°01' W 123°09'0 0.0
2015-Jan-29 06:29N 49°01' W 123°09'0 0.0
2015-Jan-29 05:32N 49°01' W 123°09'0 0.0
2015-Jan-29 04:32N 49°01' W 123°09'0 0.0
2015-Jan-29 03:32N 49°01' W 123°09'0 0.0
2015-Jan-29 02:32N 49°01' W 123°09'0 0.0
2015-Jan-29 01:29N 49°01' W 123°09'0 0.0
2015-Jan-29 00:32N 49°01' W 123°09'0 0.0
2015-Jan-28 23:32N 49°01' W 123°09'0 0.0
2015-Jan-28 22:32N 49°01' W 123°09'0 0.0
2015-Jan-28 21:32N 49°01' W 123°09'0 0.0
2015-Jan-28 20:32N 49°01' W 123°09'0 0.0
2015-Jan-28 19:29N 49°01' W 123°09'0 0.0
2015-Jan-28 18:29N 49°01' W 123°09'0 0.0
2015-Jan-28 17:32N 49°01' W 123°09'0 0.0
2015-Jan-28 16:32N 49°01' W 123°09'0 0.0
2015-Jan-28 15:32N 49°01' W 123°09'0 0.0
2015-Jan-28 14:29N 49°01' W 123°09'0 0.0
2015-Jan-28 13:29N 49°01' W 123°09'0 0.0
2015-Jan-28 12:32N 49°01' W 123°09'0 0.0
2015-Jan-28 11:32N 49°01' W 123°09'0 0.0
2015-Jan-28 10:29N 49°01' W 123°09'0 0.0
2015-Jan-28 09:32N 49°01' W 123°09'0 0.0
2015-Jan-28 08:32N 49°01' W 123°09'0 0.0
2015-Jan-28 07:32N 49°01' W 123°09'0 0.0
2015-Jan-28 06:32N 49°01' W 123°09'0 0.0
2015-Jan-28 05:29N 49°01' W 123°09'0 0.0
2015-Jan-28 04:32N 49°01' W 123°09'0 0.0
2015-Jan-28 03:32N 49°01' W 123°09'0 0.0
2015-Jan-28 02:32N 49°01' W 123°09'0 0.0
2015-Jan-28 01:32N 49°01' W 123°09'0 0.0
2015-Jan-28 00:32N 49°01' W 123°09'1 1.3
2015-Jan-27 23:33N 49°00' W 123°09'2 1.6
2015-Jan-27 22:33N 48°59' W 123°09'6 6.1
2015-Jan-27 21:33N 48°54' W 123°04'8 8.1
2015-Jan-27 20:33N 48°45' W 123°03'1211.7
2015-Jan-27 19:34N 48°36' W 123°13'1313.2
2015-Jan-27 18:34N 48°23' W 123°17'1010.4
2015-Jan-27 17:34N 48°15' W 123°27'8 8.0
2015-Jan-27 16:33N 48°09' W 123°18'1615.5
2015-Jan-27 15:32N 48°12' W 122°54'1515.4
2015-Jan-27 14:33N 48°02' W 122°37'1717.3
2015-Jan-27 13:33N 47°47' W 122°26'1211.5
2015-Jan-27 12:33N 47°36' W 122°21'1 0.8
2015-Jan-27 11:33N 47°35' W 122°21'0 0.0
2015-Jan-27 10:33N 47°35' W 122°21'0 0.0
2015-Jan-27 09:33N 47°35' W 122°21'0 0.0
2015-Jan-27 08:30N 47°35' W 122°21'0 0.0
2015-Jan-27 07:33N 47°35' W 122°21'0 0.0
2015-Jan-27 06:33N 47°35' W 122°21'0 0.0
2015-Jan-27 05:33N 47°35' W 122°21'0 0.0
2015-Jan-27 04:33N 47°35' W 122°21'0 0.0
2015-Jan-27 03:33N 47°35' W 122°21'0 0.0
2015-Jan-27 02:33N 47°35' W 122°21'0 0.0
2015-Jan-27 01:33N 47°35' W 122°21'0 0.0
2015-Jan-27 00:33N 47°35' W 122°21'0 0.0
2015-Jan-26 23:33N 47°35' W 122°21'0 0.0
2015-Jan-26 22:33N 47°35' W 122°21'0 0.0
2015-Jan-26 21:33N 47°35' W 122°21'0 0.0
2015-Jan-26 20:33N 47°35' W 122°21'0 0.0
2015-Jan-26 19:33N 47°35' W 122°21'0 0.0
2015-Jan-26 18:33N 47°35' W 122°21'0 0.0
2015-Jan-26 17:33N 47°35' W 122°21'0 0.0
2015-Jan-26 16:33N 47°35' W 122°21'0 0.0
2015-Jan-26 15:33N 47°35' W 122°21'0 0.0
2015-Jan-26 14:33N 47°35' W 122°21'0 0.0
2015-Jan-26 13:33N 47°35' W 122°21'0 0.0
2015-Jan-26 12:33N 47°35' W 122°21'0 0.0
2015-Jan-26 11:33N 47°35' W 122°21'0 0.0
2015-Jan-26 10:33N 47°35' W 122°21'0 0.0
2015-Jan-26 09:33N 47°35' W 122°21'0 0.0
2015-Jan-26 08:33N 47°35' W 122°21'0 0.0
2015-Jan-26 07:33N 47°35' W 122°21'0 0.0
2015-Jan-26 06:33N 47°35' W 122°21'0 0.0
2015-Jan-26 05:33N 47°35' W 122°21'0 0.0
2015-Jan-26 04:33N 47°35' W 122°21'0 0.0
2015-Jan-26 03:33N 47°35' W 122°21'0 0.0
2015-Jan-26 02:33N 47°35' W 122°21'0 0.0
2015-Jan-26 01:33N 47°35' W 122°21'0 0.0
2015-Jan-26 00:33N 47°35' W 122°21'0 0.0
2015-Jan-25 23:33N 47°35' W 122°21'0 0.0
2015-Jan-25 22:33N 47°35' W 122°21'0 0.0
2015-Jan-25 21:33N 47°35' W 122°21'0 0.0
2015-Jan-25 20:30N 47°35' W 122°21'0 0.0
2015-Jan-25 19:33N 47°35' W 122°21'0 0.0
2015-Jan-25 18:33N 47°35' W 122°21'0 0.0
2015-Jan-25 17:33N 47°35' W 122°21'0 0.0
2015-Jan-25 16:33N 47°35' W 122°21'0 0.0
2015-Jan-25 15:30N 47°35' W 122°21'0 0.0
2015-Jan-25 14:33N 47°35' W 122°21'0 0.0
2015-Jan-25 13:33N 47°35' W 122°21'0 0.0
2015-Jan-25 12:33N 47°35' W 122°21'0 0.0
2015-Jan-25 11:33N 47°35' W 122°21'0 0.0
2015-Jan-25 10:33N 47°35' W 122°21'0 0.0
2015-Jan-25 09:33N 47°35' W 122°21'0 0.0
2015-Jan-25 08:33N 47°35' W 122°21'0 0.0
2015-Jan-25 07:33N 47°35' W 122°21'0 0.0
2015-Jan-25 06:30N 47°35' W 122°21'0 0.0
2015-Jan-25 05:33N 47°35' W 122°21'0 0.0
2015-Jan-25 04:33N 47°35' W 122°21'0 0.0
2015-Jan-25 03:33N 47°35' W 122°21'0 0.0
2015-Jan-25 02:33N 47°35' W 122°21'0 0.0
2015-Jan-25 01:30N 47°35' W 122°21'0 0.0
2015-Jan-25 00:33N 47°35' W 122°21'0 0.0
2015-Jan-24 23:33N 47°35' W 122°21'0 0.0
2015-Jan-24 22:33N 47°35' W 122°21'0 0.0
2015-Jan-24 21:30N 47°35' W 122°21'0 0.0
2015-Jan-24 20:27N 47°35' W 122°21'0 0.0
2015-Jan-24 19:33N 47°35' W 122°21'0 0.0
2015-Jan-24 18:33N 47°35' W 122°21'0 0.0
2015-Jan-24 17:33N 47°35' W 122°21'0 0.0
2015-Jan-24 16:30N 47°35' W 122°21'0 0.0
2015-Jan-24 15:33N 47°35' W 122°21'0 0.0
2015-Jan-24 14:33N 47°35' W 122°21'0 0.0
2015-Jan-24 13:33N 47°35' W 122°21'0 0.0
2015-Jan-24 12:33N 47°35' W 122°21'0 0.0
2015-Jan-24 11:33N 47°35' W 122°21'0 0.0
2015-Jan-24 10:30N 47°35' W 122°21'0 0.0
2015-Jan-24 09:33N 47°35' W 122°21'0 0.0
2015-Jan-24 08:33N 47°35' W 122°21'0 0.0
2015-Jan-24 07:33N 47°35' W 122°21'0 0.0
2015-Jan-24 06:33N 47°35' W 122°21'0 0.0
2015-Jan-24 05:33N 47°35' W 122°21'0 0.0
2015-Jan-24 04:33N 47°35' W 122°21'0 0.0
2015-Jan-24 03:30N 47°35' W 122°21'0 0.0
2015-Jan-24 02:33N 47°35' W 122°21'0 0.0
2015-Jan-24 01:33N 47°35' W 122°21'0 0.0
2015-Jan-24 00:33N 47°35' W 122°21'0 0.0
2015-Jan-23 23:33N 47°35' W 122°21'0 0.0
2015-Jan-23 22:33N 47°35' W 122°21'0 0.0
2015-Jan-23 21:33N 47°35' W 122°21'0 0.0
2015-Jan-23 20:33N 47°35' W 122°21'0 0.0
2015-Jan-23 19:33N 47°35' W 122°21'0 0.0
2015-Jan-23 18:33N 47°35' W 122°21'0 0.0
2015-Jan-23 17:33N 47°35' W 122°21'0 0.0
2015-Jan-23 16:33N 47°35' W 122°21'0 0.0
2015-Jan-23 15:33N 47°35' W 122°21'0 0.0
2015-Jan-23 14:33N 47°35' W 122°21'0 0.0
2015-Jan-23 13:33N 47°35' W 122°21'0 0.0
2015-Jan-23 12:33N 47°35' W 122°21'0 0.0
2015-Jan-23 11:33N 47°35' W 122°21'0 0.0
2015-Jan-23 10:33N 47°35' W 122°21'0 0.0
2015-Jan-23 09:33N 47°35' W 122°21'0 0.0
2015-Jan-23 08:33N 47°35' W 122°21'0 0.0
2015-Jan-23 07:33N 47°35' W 122°21'0 0.0
2015-Jan-23 06:33N 47°35' W 122°21'0 0.0
2015-Jan-23 05:33N 47°35' W 122°21'0 0.0
2015-Jan-23 04:33N 47°35' W 122°21'0 0.0
2015-Jan-23 03:30N 47°35' W 122°21'0 0.0
2015-Jan-23 02:33N 47°35' W 122°21'0 0.0
2015-Jan-23 01:33N 47°35' W 122°21'0 0.0
2015-Jan-23 00:33N 47°35' W 122°21'0 0.0
2015-Jan-22 23:33N 47°35' W 122°21'0 0.0
2015-Jan-22 22:30N 47°35' W 122°21'0 0.0
2015-Jan-22 21:33N 47°35' W 122°21'0 0.0
2015-Jan-22 20:33N 47°35' W 122°21'0 0.0
2015-Jan-22 19:33N 47°35' W 122°21'0 0.0
2015-Jan-22 18:33N 47°35' W 122°21'0 0.0
2015-Jan-22 17:33N 47°35' W 122°21'0 0.0
2015-Jan-22 16:33N 47°35' W 122°21'0 0.0
2015-Jan-22 15:33N 47°35' W 122°21'0 0.0
2015-Jan-22 14:33N 47°35' W 122°21'0 0.0
2015-Jan-22 13:33N 47°35' W 122°21'0 0.0
2015-Jan-22 12:33N 47°35' W 122°21'0 0.0
2015-Jan-22 11:33N 47°35' W 122°21'0 0.0
2015-Jan-22 10:33N 47°35' W 122°21'0 0.0
2015-Jan-22 09:33N 47°35' W 122°21'0 0.0
2015-Jan-22 08:33N 47°35' W 122°21'0 0.0
2015-Jan-22 07:30N 47°35' W 122°21'0 0.0
2015-Jan-22 06:33N 47°35' W 122°21'0 0.0
2015-Jan-22 05:33N 47°35' W 122°21'0 0.0
2015-Jan-22 04:33N 47°35' W 122°21'0 0.0
2015-Jan-22 03:33N 47°35' W 122°21'0 0.0
2015-Jan-22 02:33N 47°35' W 122°21'0 0.0
2015-Jan-22 01:30N 47°35' W 122°21'0 0.0
2015-Jan-22 00:33N 47°35' W 122°21'0 0.0
2015-Jan-21 23:33N 47°35' W 122°21'0 0.0
2015-Jan-21 22:45N 47°35' W 122°21'0 0.0
2015-Jan-21 22:33N 47°35' W 122°21'0 0.0
2015-Jan-21 21:33N 47°35' W 122°21'0 0.0
2015-Jan-21 20:33N 47°35' W 122°21'0 0.0
2015-Jan-21 19:33N 47°35' W 122°21'0 0.0
2015-Jan-21 18:33N 47°35' W 122°21'0 0.0
2015-Jan-21 17:33N 47°35' W 122°21'0 0.0
2015-Jan-21 16:33N 47°35' W 122°21'0 0.0
2015-Jan-21 15:33N 47°35' W 122°21'0 0.0
2015-Jan-21 14:33N 47°35' W 122°21'0 0.0
2015-Jan-21 13:33N 47°35' W 122°21'0 0.0
2015-Jan-21 12:33N 47°35' W 122°21'0 0.0
2015-Jan-21 11:33N 47°35' W 122°21'0 0.0
2015-Jan-21 10:33N 47°35' W 122°21'0 0.0
2015-Jan-21 09:30N 47°35' W 122°21'0 0.0
2015-Jan-21 08:33N 47°35' W 122°21'0 0.0
2015-Jan-21 07:33N 47°35' W 122°21'0 0.0
2015-Jan-21 06:33N 47°35' W 122°21'0 0.0
2015-Jan-21 05:33N 47°35' W 122°21'0 0.0
2015-Jan-21 04:30N 47°35' W 122°21'0 0.0
2015-Jan-21 03:33N 47°35' W 122°21'0 0.0
2015-Jan-21 02:33N 47°35' W 122°21'0 0.0
2015-Jan-21 01:33N 47°35' W 122°21'0 0.0
2015-Jan-21 00:33N 47°35' W 122°21'0 0.0
2015-Jan-20 23:33N 47°35' W 122°21'0 0.0
2015-Jan-20 22:33N 47°35' W 122°21'0 0.0
2015-Jan-20 21:33N 47°35' W 122°21'0 0.0
2015-Jan-20 20:33N 47°35' W 122°21'0 0.0
2015-Jan-20 19:33N 47°35' W 122°21'0 0.0
2015-Jan-20 18:33N 47°35' W 122°21'0 0.0
2015-Jan-20 17:33N 47°35' W 122°21'0 0.0
2015-Jan-20 16:33N 47°35' W 122°21'0 0.0
2015-Jan-20 15:33N 47°35' W 122°21'0 0.0
2015-Jan-20 14:33N 47°35' W 122°21'0 0.0
2015-Jan-20 13:33N 47°35' W 122°21'0 0.0
2015-Jan-20 12:33N 47°35' W 122°21'0 0.0
2015-Jan-20 11:33N 47°35' W 122°21'0 0.0
2015-Jan-20 10:33N 47°35' W 122°21'0 0.0
2015-Jan-20 09:33N 47°35' W 122°21'0 0.0
2015-Jan-20 08:33N 47°35' W 122°21'0 0.0
2015-Jan-20 07:33N 47°35' W 122°21'0 0.0
2015-Jan-20 06:33N 47°35' W 122°21'  
Track history (hours):
 
Tides and Currents Weather Stations Pressure Air Temp Water Temp Dewpoint Dewpoint Depression Visibility Wind Speed Wind Dir Waves Ship Positions

Arthur Maersk

Last reported at 2015-Jan-30 05:32 UTC. Time now 2015-Jan-30 06:24 UTC.
Position N 49°01' W 123°09'.

Length 352 m; draft 13.1 m.

Type: Cargo ship. MMSI: 220221000.

Date/timePositionNaut miles runAvg speedWind from/ knotsBaromVisibWave heightAir tempDewpointWater temp
2015-Jan-30 05:32N 49°01' W 123°09'0 0.0
2015-Jan-30 04:32N 49°01' W 123°09'0 0.0
2015-Jan-30 03:32N 49°01' W 123°09'0 0.0
2015-Jan-30 02:32N 49°01' W 123°09'0 0.0
2015-Jan-30 01:32N 49°01' W 123°09'0 0.0
2015-Jan-30 00:29N 49°01' W 123°09'0 0.0
2015-Jan-29 23:29N 49°01' W 123°09'0 0.0
2015-Jan-29 22:32N 49°01' W 123°09'0 0.0
2015-Jan-29 21:32N 49°01' W 123°09'0 0.0
2015-Jan-29 20:32N 49°01' W 123°09'0 0.0
2015-Jan-29 19:32N 49°01' W 123°09'0 0.0
2015-Jan-29 18:32N 49°01' W 123°09'0 0.0
2015-Jan-29 17:32N 49°01' W 123°09'0 0.0
2015-Jan-29 16:32N 49°01' W 123°09'0 0.0
2015-Jan-29 15:32N 49°01' W 123°09'0 0.0
2015-Jan-29 14:32N 49°01' W 123°09'0 0.0
2015-Jan-29 13:32N 49°01' W 123°09'0 0.0
2015-Jan-29 12:32N 49°01' W 123°09'0 0.0
2015-Jan-29 11:33N 49°01' W 123°09'0 0.0
2015-Jan-29 10:32N 49°01' W 123°09'0 0.0
2015-Jan-29 09:32N 49°01' W 123°09'0 0.0
2015-Jan-29 08:32N 49°01' W 123°09'0 0.0
2015-Jan-29 07:29N 49°01' W 123°09'0 0.0
2015-Jan-29 06:29N 49°01' W 123°09'0 0.0
2015-Jan-29 05:32N 49°01' W 123°09'0 0.0
2015-Jan-29 04:32N 49°01' W 123°09'0 0.0
2015-Jan-29 03:32N 49°01' W 123°09'0 0.0
2015-Jan-29 02:32N 49°01' W 123°09'0 0.0
2015-Jan-29 01:29N 49°01' W 123°09'0 0.0
2015-Jan-29 00:32N 49°01' W 123°09'0 0.0
2015-Jan-28 23:32N 49°01' W 123°09'0 0.0
2015-Jan-28 22:32N 49°01' W 123°09'0 0.0
2015-Jan-28 21:32N 49°01' W 123°09'0 0.0
2015-Jan-28 20:32N 49°01' W 123°09'0 0.0
2015-Jan-28 19:29N 49°01' W 123°09'0 0.0
2015-Jan-28 18:29N 49°01' W 123°09'0 0.0
2015-Jan-28 17:32N 49°01' W 123°09'0 0.0
2015-Jan-28 16:32N 49°01' W 123°09'0 0.0
2015-Jan-28 15:32N 49°01' W 123°09'0 0.0
2015-Jan-28 14:29N 49°01' W 123°09'0 0.0
2015-Jan-28 13:29N 49°01' W 123°09'0 0.0
2015-Jan-28 12:32N 49°01' W 123°09'0 0.0
2015-Jan-28 11:32N 49°01' W 123°09'0 0.0
2015-Jan-28 10:29N 49°01' W 123°09'0 0.0
2015-Jan-28 09:32N 49°01' W 123°09'0 0.0
2015-Jan-28 08:32N 49°01' W 123°09'0 0.0
2015-Jan-28 07:32N 49°01' W 123°09'0 0.0
2015-Jan-28 06:32N 49°01' W 123°09'0 0.0
2015-Jan-28 05:29N 49°01' W 123°09'0 0.0
2015-Jan-28 04:32N 49°01' W 123°09'0 0.0
2015-Jan-28 03:32N 49°01' W 123°09'0 0.0
2015-Jan-28 02:32N 49°01' W 123°09'0 0.0
2015-Jan-28 01:32N 49°01' W 123°09'0 0.0
2015-Jan-28 00:32N 49°01' W 123°09'1 1.3
2015-Jan-27 23:33N 49°00' W 123°09'2 1.6
2015-Jan-27 22:33N 48°59' W 123°09'6 6.1
2015-Jan-27 21:33N 48°54' W 123°04'8 8.1
2015-Jan-27 20:33N 48°45' W 123°03'1211.7
2015-Jan-27 19:34N 48°36' W 123°13'1313.2
2015-Jan-27 18:34N 48°23' W 123°17'1010.4
2015-Jan-27 17:34N 48°15' W 123°27'8 8.0
2015-Jan-27 16:33N 48°09' W 123°18'1615.5
2015-Jan-27 15:32N 48°12' W 122°54'1515.4
2015-Jan-27 14:33N 48°02' W 122°37'1717.3
2015-Jan-27 13:33N 47°47' W 122°26'1211.5
2015-Jan-27 12:33N 47°36' W 122°21'1 0.8
2015-Jan-27 11:33N 47°35' W 122°21'0 0.0
2015-Jan-27 10:33N 47°35' W 122°21'0 0.0
2015-Jan-27 09:33N 47°35' W 122°21'0 0.0
2015-Jan-27 08:30N 47°35' W 122°21'0 0.0
2015-Jan-27 07:33N 47°35' W 122°21'0 0.0
2015-Jan-27 06:33N 47°35' W 122°21'0 0.0
2015-Jan-27 05:33N 47°35' W 122°21'0 0.0
2015-Jan-27 04:33N 47°35' W 122°21'0 0.0
2015-Jan-27 03:33N 47°35' W 122°21'0 0.0
2015-Jan-27 02:33N 47°35' W 122°21'0 0.0
2015-Jan-27 01:33N 47°35' W 122°21'0 0.0
2015-Jan-27 00:33N 47°35' W 122°21'0 0.0
2015-Jan-26 23:33N 47°35' W 122°21'0 0.0
2015-Jan-26 22:33N 47°35' W 122°21'0 0.0
2015-Jan-26 21:33N 47°35' W 122°21'0 0.0
2015-Jan-26 20:33N 47°35' W 122°21'0 0.0
2015-Jan-26 19:33N 47°35' W 122°21'0 0.0
2015-Jan-26 18:33N 47°35' W 122°21'0 0.0
2015-Jan-26 17:33N 47°35' W 122°21'0 0.0
2015-Jan-26 16:33N 47°35' W 122°21'0 0.0
2015-Jan-26 15:33N 47°35' W 122°21'0 0.0
2015-Jan-26 14:33N 47°35' W 122°21'0 0.0
2015-Jan-26 13:33N 47°35' W 122°21'0 0.0
2015-Jan-26 12:33N 47°35' W 122°21'0 0.0
2015-Jan-26 11:33N 47°35' W 122°21'0 0.0
2015-Jan-26 10:33N 47°35' W 122°21'0 0.0
2015-Jan-26 09:33N 47°35' W 122°21'0 0.0
2015-Jan-26 08:33N 47°35' W 122°21'0 0.0
2015-Jan-26 07:33N 47°35' W 122°21'0 0.0
2015-Jan-26 06:33N 47°35' W 122°21'0 0.0
2015-Jan-26 05:33N 47°35' W 122°21'0 0.0
2015-Jan-26 04:33N 47°35' W 122°21'0 0.0
2015-Jan-26 03:33N 47°35' W 122°21'0 0.0
2015-Jan-26 02:33N 47°35' W 122°21'0 0.0
2015-Jan-26 01:33N 47°35' W 122°21'0 0.0
2015-Jan-26 00:33N 47°35' W 122°21'0 0.0
2015-Jan-25 23:33N 47°35' W 122°21'0 0.0
2015-Jan-25 22:33N 47°35' W 122°21'0 0.0
2015-Jan-25 21:33N 47°35' W 122°21'0 0.0
2015-Jan-25 20:30N 47°35' W 122°21'0 0.0
2015-Jan-25 19:33N 47°35' W 122°21'0 0.0
2015-Jan-25 18:33N 47°35' W 122°21'0 0.0
2015-Jan-25 17:33N 47°35' W 122°21'0 0.0
2015-Jan-25 16:33N 47°35' W 122°21'0 0.0
2015-Jan-25 15:30N 47°35' W 122°21'0 0.0
2015-Jan-25 14:33N 47°35' W 122°21'0 0.0
2015-Jan-25 13:33N 47°35' W 122°21'0 0.0
2015-Jan-25 12:33N 47°35' W 122°21'0 0.0
2015-Jan-25 11:33N 47°35' W 122°21'0 0.0
2015-Jan-25 10:33N 47°35' W 122°21'0 0.0
2015-Jan-25 09:33N 47°35' W 122°21'0 0.0
2015-Jan-25 08:33N 47°35' W 122°21'0 0.0
2015-Jan-25 07:33N 47°35' W 122°21'0 0.0
2015-Jan-25 06:30N 47°35' W 122°21'0 0.0
2015-Jan-25 05:33N 47°35' W 122°21'0 0.0
2015-Jan-25 04:33N 47°35' W 122°21'0 0.0
2015-Jan-25 03:33N 47°35' W 122°21'0 0.0
2015-Jan-25 02:33N 47°35' W 122°21'0 0.0
2015-Jan-25 01:30N 47°35' W 122°21'0 0.0
2015-Jan-25 00:33N 47°35' W 122°21'0 0.0
2015-Jan-24 23:33N 47°35' W 122°21'0 0.0
2015-Jan-24 22:33N 47°35' W 122°21'0 0.0
2015-Jan-24 21:30N 47°35' W 122°21'0 0.0
2015-Jan-24 20:27N 47°35' W 122°21'0 0.0
2015-Jan-24 19:33N 47°35' W 122°21'0 0.0
2015-Jan-24 18:33N 47°35' W 122°21'0 0.0
2015-Jan-24 17:33N 47°35' W 122°21'0 0.0
2015-Jan-24 16:30N 47°35' W 122°21'0 0.0
2015-Jan-24 15:33N 47°35' W 122°21'0 0.0
2015-Jan-24 14:33N 47°35' W 122°21'0 0.0
2015-Jan-24 13:33N 47°35' W 122°21'0 0.0
2015-Jan-24 12:33N 47°35' W 122°21'0 0.0
2015-Jan-24 11:33N 47°35' W 122°21'0 0.0
2015-Jan-24 10:30N 47°35' W 122°21'0 0.0
2015-Jan-24 09:33N 47°35' W 122°21'0 0.0
2015-Jan-24 08:33N 47°35' W 122°21'0 0.0
2015-Jan-24 07:33N 47°35' W 122°21'0 0.0
2015-Jan-24 06:33N 47°35' W 122°21'0 0.0
2015-Jan-24 05:33N 47°35' W 122°21'0 0.0
2015-Jan-24 04:33N 47°35' W 122°21'0 0.0
2015-Jan-24 03:30N 47°35' W 122°21'0 0.0
2015-Jan-24 02:33N 47°35' W 122°21'0 0.0
2015-Jan-24 01:33N 47°35' W 122°21'0 0.0
2015-Jan-24 00:33N 47°35' W 122°21'0 0.0
2015-Jan-23 23:33N 47°35' W 122°21'0 0.0
2015-Jan-23 22:33N 47°35' W 122°21'0 0.0
2015-Jan-23 21:33N 47°35' W 122°21'0 0.0
2015-Jan-23 20:33N 47°35' W 122°21'0 0.0
2015-Jan-23 19:33N 47°35' W 122°21'0 0.0
2015-Jan-23 18:33N 47°35' W 122°21'0 0.0
2015-Jan-23 17:33N 47°35' W 122°21'0 0.0
2015-Jan-23 16:33N 47°35' W 122°21'0 0.0
2015-Jan-23 15:33N 47°35' W 122°21'0 0.0
2015-Jan-23 14:33N 47°35' W 122°21'0 0.0
2015-Jan-23 13:33N 47°35' W 122°21'0 0.0
2015-Jan-23 12:33N 47°35' W 122°21'0 0.0
2015-Jan-23 11:33N 47°35' W 122°21'0 0.0
2015-Jan-23 10:33N 47°35' W 122°21'0 0.0
2015-Jan-23 09:33N 47°35' W 122°21'0 0.0
2015-Jan-23 08:33N 47°35' W 122°21'0 0.0
2015-Jan-23 07:33N 47°35' W 122°21'0 0.0
2015-Jan-23 06:33N 47°35' W 122°21'0 0.0
2015-Jan-23 05:33N 47°35' W 122°21'0 0.0
2015-Jan-23 04:33N 47°35' W 122°21'0 0.0
2015-Jan-23 03:30N 47°35' W 122°21'0 0.0
2015-Jan-23 02:33N 47°35' W 122°21'0 0.0
2015-Jan-23 01:33N 47°35' W 122°21'0 0.0
2015-Jan-23 00:33N 47°35' W 122°21'0 0.0
2015-Jan-22 23:33N 47°35' W 122°21'0 0.0
2015-Jan-22 22:30N 47°35' W 122°21'0 0.0
2015-Jan-22 21:33N 47°35' W 122°21'0 0.0
2015-Jan-22 20:33N 47°35' W 122°21'0 0.0
2015-Jan-22 19:33N 47°35' W 122°21'0 0.0
2015-Jan-22 18:33N 47°35' W 122°21'0 0.0
2015-Jan-22 17:33N 47°35' W 122°21'0 0.0
2015-Jan-22 16:33N 47°35' W 122°21'0 0.0
2015-Jan-22 15:33N 47°35' W 122°21'0 0.0
2015-Jan-22 14:33N 47°35' W 122°21'0 0.0
2015-Jan-22 13:33N 47°35' W 122°21'0 0.0
2015-Jan-22 12:33N 47°35' W 122°21'0 0.0
2015-Jan-22 11:33N 47°35' W 122°21'0 0.0
2015-Jan-22 10:33N 47°35' W 122°21'0 0.0
2015-Jan-22 09:33N 47°35' W 122°21'0 0.0
2015-Jan-22 08:33N 47°35' W 122°21'0 0.0
2015-Jan-22 07:30N 47°35' W 122°21'0 0.0
2015-Jan-22 06:33N 47°35' W 122°21'0 0.0
2015-Jan-22 05:33N 47°35' W 122°21'0 0.0
2015-Jan-22 04:33N 47°35' W 122°21'0 0.0
2015-Jan-22 03:33N 47°35' W 122°21'0 0.0
2015-Jan-22 02:33N 47°35' W 122°21'0 0.0
2015-Jan-22 01:30N 47°35' W 122°21'0 0.0
2015-Jan-22 00:33N 47°35' W 122°21'0 0.0
2015-Jan-21 23:33N 47°35' W 122°21'0 0.0
2015-Jan-21 22:45N 47°35' W 122°21'0 0.0
2015-Jan-21 22:33N 47°35' W 122°21'0 0.0
2015-Jan-21 21:33N 47°35' W 122°21'0 0.0
2015-Jan-21 20:33N 47°35' W 122°21'0 0.0
2015-Jan-21 19:33N 47°35' W 122°21'0 0.0
2015-Jan-21 18:33N 47°35' W 122°21'0 0.0
2015-Jan-21 17:33N 47°35' W 122°21'0 0.0
2015-Jan-21 16:33N 47°35' W 122°21'0 0.0
2015-Jan-21 15:33N 47°35' W 122°21'0 0.0
2015-Jan-21 14:33N 47°35' W 122°21'0 0.0
2015-Jan-21 13:33N 47°35' W 122°21'0 0.0
2015-Jan-21 12:33N 47°35' W 122°21'0 0.0
2015-Jan-21 11:33N 47°35' W 122°21'0 0.0
2015-Jan-21 10:33N 47°35' W 122°21'0 0.0
2015-Jan-21 09:30N 47°35' W 122°21'0 0.0
2015-Jan-21 08:33N 47°35' W 122°21'0 0.0
2015-Jan-21 07:33N 47°35' W 122°21'0 0.0
2015-Jan-21 06:33N 47°35' W 122°21'0 0.0
2015-Jan-21 05:33N 47°35' W 122°21'0 0.0
2015-Jan-21 04:30N 47°35' W 122°21'0 0.0
2015-Jan-21 03:33N 47°35' W 122°21'0 0.0
2015-Jan-21 02:33N 47°35' W 122°21'0 0.0
2015-Jan-21 01:33N 47°35' W 122°21'0 0.0
2015-Jan-21 00:33N 47°35' W 122°21'0 0.0
2015-Jan-20 23:33N 47°35' W 122°21'0 0.0
2015-Jan-20 22:33N 47°35' W 122°21'0 0.0
2015-Jan-20 21:33N 47°35' W 122°21'0 0.0
2015-Jan-20 20:33N 47°35' W 122°21'0 0.0
2015-Jan-20 19:33N 47°35' W 122°21'0 0.0
2015-Jan-20 18:33N 47°35' W 122°21'0 0.0
2015-Jan-20 17:33N 47°35' W 122°21'0 0.0
2015-Jan-20 16:33N 47°35' W 122°21'0 0.0
2015-Jan-20 15:33N 47°35' W 122°21'0 0.0
2015-Jan-20 14:33N 47°35' W 122°21'0 0.0
2015-Jan-20 13:33N 47°35' W 122°21'0 0.0
2015-Jan-20 12:33N 47°35' W 122°21'0 0.0
2015-Jan-20 11:33N 47°35' W 122°21'0 0.0
2015-Jan-20 10:33N 47°35' W 122°21'0 0.0
2015-Jan-20 09:33N 47°35' W 122°21'0 0.0
2015-Jan-20 08:33N 47°35' W 122°21'0 0.0
2015-Jan-20 07:33N 47°35' W 122°21'0 0.0
2015-Jan-20 06:33N 47°35' W 122°21'  

Dump ship's entire track history